Time;durP1;ratioP1;P1;durP2;ratioP2;P2;SDS_P1;SDS_P2;PMS_P1;PMS_P2;Temp;Humidity;BMP_temperature;BMP_pressure;BME280_temperature;BME280_humidity;BME280_pressure;Samples;Min_cycle;Max_cycle;Signal;HPM_P1;HPM_P2
2024/04/15 00:01:37;;;;;;;0.60;0.60;;;4.60;99.90;;;;;;5481565;26;20014;-83
2024/04/15 00:04:03;;;;;;;0.50;0.50;;;4.50;99.90;;;;;;5479882;26;20487;-84
2024/04/15 00:06:28;;;;;;;0.60;0.60;;;4.40;99.90;;;;;;5487800;26;20033;-83
2024/04/15 00:08:54;;;;;;;0.52;0.52;;;5.80;99.90;;;;;;5484028;26;20491;-83
2024/04/15 00:11:20;;;;;;;0.63;0.63;;;4.30;99.90;;;;;;5450907;26;20027;-84
2024/04/15 00:13:46;;;;;;;0.50;0.50;;;4.30;99.90;;;;;;5482527;26;20407;-82
2024/04/15 00:16:11;;;;;;;0.50;0.50;;;4.20;99.90;;;;;;5481144;26;20022;-83
2024/04/15 00:18:40;;;;;;;0.60;0.60;;;4.20;99.90;;;;;;5483724;26;20002;-84
2024/04/15 00:21:10;;;;;;;0.60;0.60;;;4.20;99.90;;;;;;5483499;26;20425;-83
2024/04/15 00:23:36;;;;;;;0.50;0.50;;;4.20;99.90;;;;;;5475598;26;20007;-84
2024/04/15 00:26:02;;;;;;;;;;;4.20;99.90;;;;;;5486131;26;20009;-82
2024/04/15 00:28:28;;;;;;;0.50;0.50;;;4.20;99.90;;;;;;5484516;26;19924;-81
2024/04/15 00:30:54;;;;;;;0.60;0.60;;;4.20;99.90;;;;;;5487530;26;20006;-82
2024/04/15 00:33:20;;;;;;;0.50;0.50;;;4.70;99.90;;;;;;5487263;26;20009;-82
2024/04/15 00:35:47;;;;;;;0.60;0.60;;;4.20;99.90;;;;;;5489124;26;20450;-84
2024/04/15 00:38:14;;;;;;;0.40;0.40;;;4.20;99.90;;;;;;5488918;26;20006;-82
2024/04/15 00:40:40;;;;;;;;;;;4.20;99.90;;;;;;5488923;26;20447;-83
2024/04/15 00:43:09;;;;;;;0.70;0.70;;;4.20;99.90;;;;;;5488797;26;19931;-83
2024/04/15 00:45:35;;;;;;;0.60;0.60;;;4.20;99.90;;;;;;5488509;26;20046;-83
2024/04/15 00:48:03;;;;;;;0.55;0.55;;;4.20;99.90;;;;;;5488894;26;20014;-84
2024/04/15 00:50:33;;;;;;;1.90;1.83;;;4.20;99.90;;;;;;5487255;26;20078;-83
2024/04/15 00:53:01;;;;;;;0.63;0.63;;;5.00;99.90;;;;;;5487552;26;20021;-83
2024/04/15 00:55:29;;;;;;;0.60;0.60;;;5.20;99.90;;;;;;5484033;26;20009;-84
2024/04/15 00:57:55;;;;;;;0.50;0.50;;;4.20;99.90;;;;;;5487795;26;20006;-83
2024/04/15 01:00:22;;;;;;;0.60;0.60;;;4.20;99.90;;;;;;5484724;26;20025;-82
2024/04/15 01:02:48;;;;;;;0.57;0.57;;;4.20;99.90;;;;;;5485062;26;20014;-83
2024/04/15 01:05:14;;;;;;;;;;;4.20;99.90;;;;;;5487259;26;20028;-83
2024/04/15 01:07:39;;;;;;;0.70;0.70;;;4.20;99.90;;;;;;5482443;26;19925;-81
2024/04/15 01:10:08;;;;;;;0.77;0.77;;;4.30;99.90;;;;;;5486386;26;20006;-83
2024/04/15 01:12:35;;;;;;;0.52;0.52;;;4.30;99.90;;;;;;5484352;26;20028;-80
2024/04/15 01:15:01;;;;;;;0.80;0.80;;;5.30;99.90;;;;;;5492033;26;20018;-83
2024/04/15 01:17:26;;;;;;;0.47;0.47;;;4.40;99.90;;;;;;5488115;26;20006;-82
2024/04/15 01:19:58;;;;;;;0.63;0.63;;;4.60;99.90;;;;;;5487397;26;20018;-83
2024/04/15 01:22:24;;;;;;;0.70;0.70;;;4.60;99.90;;;;;;5487324;26;20079;-82
2024/04/15 01:24:50;;;;;;;0.52;0.52;;;5.70;99.90;;;;;;5456659;26;20013;-84
2024/04/15 01:27:16;;;;;;;;;;;4.70;99.90;;;;;;5489513;26;20406;-86
2024/04/15 01:29:48;;;;;;;0.60;0.60;;;5.10;99.90;;;;;;5479239;26;19932;-85
2024/04/15 01:32:13;;;;;;;0.60;0.60;;;5.20;99.90;;;;;;5480921;26;20060;-83
2024/04/15 01:34:39;;;;;;;0.50;0.50;;;5.90;99.90;;;;;;5518409;25;20014;-84
2024/04/15 01:37:06;;;;;;;0.88;0.88;;;4.80;99.90;;;;;;5486190;26;20017;-84
2024/04/15 01:39:33;;;;;;;0.50;0.50;;;5.40;99.90;;;;;;5487652;26;20013;-83
2024/04/15 01:41:59;;;;;;;0.60;0.60;;;5.30;99.90;;;;;;5486999;26;20100;-83
2024/04/15 01:44:25;;;;;;;0.47;0.47;;;4.70;99.90;;;;;;5498931;26;20021;-85
2024/04/15 01:46:51;;;;;;;0.50;0.50;;;4.70;99.90;;;;;;5491475;26;20014;-83
2024/04/15 01:49:17;;;;;;;0.70;0.70;;;4.70;99.90;;;;;;5487153;26;20189;-84
2024/04/15 01:51:42;;;;;;;0.55;0.55;;;4.70;99.90;;;;;;5487481;26;20021;-85
2024/04/15 01:54:08;;;;;;;0.60;0.60;;;5.00;99.90;;;;;;5488009;26;20018;-82
2024/04/15 01:56:34;;;;;;;0.60;0.60;;;5.70;99.90;;;;;;5485499;26;20014;-84
2024/04/15 01:59:00;;;;;;;0.52;0.52;;;4.70;99.90;;;;;;5489087;26;20006;-82
2024/04/15 02:01:26;;;;;;;;;;;4.70;99.90;;;;;;5454300;26;20029;-82
2024/04/15 02:03:51;;;;;;;0.60;0.60;;;6.00;99.90;;;;;;5485143;26;19924;-82
2024/04/15 02:06:17;;;;;;;0.70;0.70;;;4.80;99.90;;;;;;5484212;26;20134;-82
2024/04/15 02:08:43;;;;;;;0.70;0.70;;;6.10;99.90;;;;;;5482574;26;20017;-82
2024/04/15 02:11:09;;;;;;;0.50;0.50;;;4.90;99.90;;;;;;5481382;26;20018;-81
2024/04/15 02:13:34;;;;;;;0.50;0.50;;;5.00;99.90;;;;;;5479551;26;20006;-81
2024/04/15 02:16:00;;;;;;;0.60;0.60;;;5.10;99.90;;;;;;5484389;26;20026;-82
2024/04/15 02:18:27;;;;;;;0.50;0.50;;;5.10;99.90;;;;;;5481611;26;20010;-82
2024/04/15 02:20:56;;;;;;;0.40;0.40;;;6.30;99.90;;;;;;5484731;26;20013;-80
2024/04/15 02:23:22;;;;;;;0.52;0.52;;;5.30;99.90;;;;;;5483809;26;20014;-81
2024/04/15 02:25:47;;;;;;;0.40;0.40;;;5.40;99.90;;;;;;5482134;26;20018;-83
2024/04/15 02:28:13;;;;;;;0.57;0.57;;;5.50;99.90;;;;;;5484107;26;20018;-81
2024/04/15 02:30:40;;;;;;;0.50;0.50;;;5.70;99.90;;;;;;5487819;26;20012;-83
2024/04/15 02:33:10;;;;;;;0.57;0.57;;;5.70;99.90;;;;;;5485159;25;20006;-81
2024/04/15 02:35:36;;;;;;;0.60;0.60;;;6.40;99.90;;;;;;5485829;26;20084;-81
2024/04/15 02:38:02;;;;;;;;;;;6.20;99.90;;;;;;5484485;26;20038;-82
2024/04/15 02:40:28;;;;;;;0.57;0.57;;;5.80;99.90;;;;;;5483551;26;20000;-83
2024/04/15 02:42:56;;;;;;;0.63;0.63;;;5.90;99.90;;;;;;5484829;26;20006;-83
2024/04/15 02:45:42;;;;;;;0.50;0.50;;;6.30;99.90;;;;;;5458955;26;20460;-83
2024/04/15 02:48:08;;;;;;;0.55;0.55;;;5.90;99.90;;;;;;5483014;26;20006;-81
2024/04/15 02:50:34;;;;;;;0.50;0.50;;;5.90;99.90;;;;;;5483551;26;20006;-83
2024/04/15 02:53:00;;;;;;;0.40;0.40;;;6.60;99.90;;;;;;5481615;26;20440;-82
2024/04/15 02:55:27;;;;;;;0.50;0.50;;;6.50;99.90;;;;;;5479288;26;20022;-82
2024/04/15 02:57:53;;;;;;;0.50;0.50;;;6.00;99.90;;;;;;5483817;26;20013;-84
2024/04/15 03:00:18;;;;;;;0.40;0.40;;;6.10;99.90;;;;;;5481855;26;20006;-82
2024/04/15 03:02:44;;;;;;;0.40;0.40;;;6.10;99.90;;;;;;5479410;26;20006;-82
2024/04/15 03:05:12;;;;;;;0.40;0.40;;;6.10;99.90;;;;;;5482073;26;20466;-83
2024/04/15 03:07:39;;;;;;;0.50;0.50;;;6.10;99.90;;;;;;5485569;26;20006;-83
2024/04/15 03:10:05;;;;;;;0.52;0.52;;;6.10;99.90;;;;;;5481453;26;20010;-85
2024/04/15 03:12:31;;;;;;;2.67;1.38;;;6.10;99.90;;;;;;5489406;26;20013;-84
2024/04/15 03:14:57;;;;;;;2.15;0.80;;;6.40;99.90;;;;;;5482385;26;20006;-83
2024/04/15 03:17:33;;;;;;;0.40;0.40;;;6.80;99.90;;;;;;5475928;26;20471;-83
2024/04/15 03:19:59;;;;;;;0.40;0.40;;;6.30;99.90;;;;;;5484356;26;20014;-84
2024/04/15 03:22:24;;;;;;;0.45;0.45;;;6.30;99.90;;;;;;5450429;26;20042;-82
2024/04/15 03:24:50;;;;;;;0.50;0.50;;;7.00;99.90;;;;;;5483987;26;20006;-82
2024/04/15 03:27:17;;;;;;;0.60;0.60;;;6.40;99.90;;;;;;5483249;26;20591;-82
2024/04/15 03:29:43;;;;;;;0.40;0.40;;;6.80;99.90;;;;;;5481757;26;20017;-82
2024/04/15 03:32:29;;;;;;;0.50;0.50;;;6.40;99.90;;;;;;5483200;26;20354;-81
2024/04/15 03:34:57;;;;;;;0.50;0.50;;;6.40;99.90;;;;;;5483989;26;20089;-82
2024/04/15 03:37:23;;;;;;;0.50;0.50;;;6.50;99.90;;;;;;5484370;26;20079;-81
2024/04/15 03:39:49;;;;;;;0.30;0.30;;;6.50;99.90;;;;;;5485179;26;20014;-80
2024/04/15 03:42:20;;;;;;;0.52;0.52;;;6.50;99.90;;;;;;5483115;26;20400;-81
2024/04/15 03:44:46;;;;;;;0.60;0.60;;;7.60;99.90;;;;;;5480579;26;20010;-79
2024/04/15 03:47:11;;;;;;;0.63;0.63;;;6.60;99.90;;;;;;5482196;26;20022;-80
2024/04/15 03:49:37;;;;;;;0.60;0.60;;;6.60;99.90;;;;;;5483850;26;20059;-80
2024/04/15 03:52:23;;;;;;;1.38;1.38;;;6.60;99.90;;;;;;5471090;26;20002;-82
2024/04/15 03:54:49;;;;;;;0.60;0.60;;;6.60;99.90;;;;;;5480118;26;20355;-83
2024/04/15 03:57:15;;;;;;;0.50;0.50;;;6.60;99.90;;;;;;5481889;26;20025;-84
2024/04/15 03:59:40;;;;;;;0.57;0.57;;;6.60;99.90;;;;;;5484019;26;20082;-83
2024/04/15 04:02:06;;;;;;;0.52;0.52;;;6.60;99.90;;;;;;5491439;26;20085;-84
2024/04/15 04:04:52;;;;;;;0.50;0.50;;;6.60;99.90;;;;;;5435740;26;20412;-84
2024/04/15 04:07:18;;;;;;;0.52;0.52;;;6.60;99.90;;;;;;5489244;26;20014;-85
2024/04/15 04:10:04;;;;;;;0.52;0.52;;;6.60;99.90;;;;;;5487509;26;20010;-85
2024/04/15 04:12:30;;;;;;;0.50;0.50;;;6.60;99.90;;;;;;5486372;26;20034;-85
2024/04/15 04:14:56;;;;;;;;;;;6.60;99.90;;;;;;5488105;26;20032;-82
2024/04/15 04:17:22;;;;;;;0.45;0.45;;;6.60;99.90;;;;;;5486881;26;21266;-83
2024/04/15 04:19:48;;;;;;;0.60;0.60;;;6.60;99.90;;;;;;5489078;26;20107;-82
2024/04/15 04:22:34;;;;;;;0.50;0.50;;;6.80;99.90;;;;;;5484737;26;20369;-85
2024/04/15 04:25:01;;;;;;;0.50;0.50;;;7.40;99.90;;;;;;5488888;26;20006;-85
2024/04/15 04:27:27;;;;;;;0.60;0.60;;;6.70;99.90;;;;;;5492391;26;20024;-84
2024/04/15 04:29:53;;;;;;;0.52;0.52;;;6.70;99.90;;;;;;5490721;26;20037;-84
2024/04/15 04:32:20;;;;;;;0.50;0.50;;;7.00;99.90;;;;;;5491028;26;20002;-84
2024/04/15 04:34:45;;;;;;;0.50;0.50;;;6.70;99.90;;;;;;5490808;26;20038;-83
2024/04/15 04:37:13;;;;;;;0.65;0.65;;;7.80;99.90;;;;;;5491034;26;20013;-83
2024/04/15 04:39:39;;;;;;;0.60;0.60;;;6.60;99.90;;;;;;5490707;26;20379;-85
2024/04/15 04:42:05;;;;;;;0.30;0.30;;;6.70;99.90;;;;;;5489271;26;20104;-85
2024/04/15 04:44:31;;;;;;;0.40;0.40;;;6.70;99.90;;;;;;5493596;26;20010;-86
2024/04/15 04:46:57;;;;;;;0.50;0.50;;;6.70;99.90;;;;;;5494472;26;20025;-83
2024/04/15 04:49:22;;;;;;;0.75;0.75;;;6.70;99.90;;;;;;5493785;26;20416;-84
2024/04/15 04:51:48;;;;;;;0.50;0.50;;;6.70;99.90;;;;;;5492796;26;20432;-82
2024/04/15 04:54:14;;;;;;;0.40;0.40;;;6.70;99.90;;;;;;5494969;26;20018;-82
2024/04/15 04:56:42;;;;;;;;;;;6.60;99.90;;;;;;5492389;26;20013;-82
2024/04/15 04:59:08;;;;;;;0.65;0.65;;;6.70;99.90;;;;;;5500312;26;20016;-85
2024/04/15 05:01:34;;;;;;;0.50;0.50;;;6.60;99.90;;;;;;5494545;26;20010;-84
2024/04/15 05:04:01;;;;;;;0.50;0.50;;;6.60;99.90;;;;;;5495504;26;20006;-84
2024/04/15 05:06:27;;;;;;;0.50;0.50;;;6.50;99.90;;;;;;5462333;26;20006;-85
2024/04/15 05:08:53;;;;;;;2.53;1.77;;;6.50;99.90;;;;;;5431395;26;20022;-81
2024/04/15 05:11:19;;;;;;;0.50;0.50;;;6.40;99.90;;;;;;5487799;26;20077;-85
2024/04/15 05:13:46;;;;;;;0.52;0.52;;;6.40;99.90;;;;;;5491114;26;20006;-86
2024/04/15 05:16:13;;;;;;;0.50;0.50;;;6.50;99.90;;;;;;5491638;26;20026;-84
2024/04/15 05:18:40;;;;;;;0.57;0.57;;;6.50;99.90;;;;;;5487845;26;20059;-83
2024/04/15 05:21:17;;;;;;;1.02;0.90;;;6.50;99.90;;;;;;5491029;26;20249;-83
2024/04/15 05:23:43;;;;;;;;;;;6.50;99.90;;;;;;5488261;26;20010;-83
2024/04/15 05:26:09;;;;;;;0.40;0.40;;;6.50;99.90;;;;;;5494408;26;19924;-83
2024/04/15 05:28:35;;;;;;;0.40;0.40;;;6.60;99.90;;;;;;5491406;26;20006;-82
2024/04/15 05:31:01;;;;;;;0.40;0.40;;;6.70;99.90;;;;;;5491067;26;20348;-83
2024/04/15 05:33:28;;;;;;;0.50;0.50;;;6.80;99.90;;;;;;5500216;26;20010;-86
2024/04/15 05:35:53;;;;;;;0.50;0.50;;;7.60;99.90;;;;;;5497751;26;20006;-84
2024/04/15 05:38:20;;;;;;;0.77;0.77;;;6.90;99.90;;;;;;5489710;26;20012;-83
2024/04/15 05:40:45;;;;;;;;;;;6.90;99.90;;;;;;5463986;26;20154;-83
2024/04/15 05:43:12;;;;;;;0.45;0.45;;;7.40;99.90;;;;;;5492763;26;19924;-85
2024/04/15 05:45:40;;;;;;;0.35;0.35;;;6.90;99.90;;;;;;5486311;26;20444;-85
2024/04/15 05:48:06;;;;;;;0.55;0.55;;;5.70;99.90;;;;;;5482841;26;20058;-84
2024/04/15 05:50:32;;;;;;;;;;;6.90;99.90;;;;;;5481684;26;19999;-84
2024/04/15 05:52:58;;;;;;;1.05;1.05;;;6.90;99.90;;;;;;5483362;26;19996;-85
2024/04/15 05:55:23;;;;;;;0.43;0.43;;;6.90;99.90;;;;;;5497346;26;20416;-88
2024/04/15 05:57:50;;;;;;;0.70;0.70;;;6.90;99.90;;;;;;5475793;26;20030;-87
2024/04/15 06:00:17;;;;;;;;;;;7.10;99.90;;;;;;5487819;26;20003;-86
2024/04/15 06:02:43;;;;;;;0.40;0.40;;;7.00;99.90;;;;;;5491429;26;19936;-90
2024/04/15 06:05:14;;;;;;;0.35;0.35;;;7.10;99.90;;;;;;5488663;26;20355;-91
2024/04/15 06:07:41;;;;;;;0.82;0.82;;;7.10;99.90;;;;;;5498251;26;20021;-90
2024/04/15 06:10:09;;;;;;;;;;;7.10;99.90;;;;;;5494926;26;20014;-90
2024/04/15 06:12:35;;;;;;;0.60;0.60;;;7.20;99.90;;;;;;5491311;26;20299;-88
2024/04/15 06:15:01;;;;;;;0.35;0.35;;;7.30;99.90;;;;;;5477835;26;20014;-88
2024/04/15 06:17:28;;;;;;;0.55;0.55;;;7.30;99.90;;;;;;5492852;26;20010;-89
2024/04/15 06:19:54;;;;;;;0.50;0.50;;;7.50;99.90;;;;;;5486997;26;20007;-88
2024/04/15 06:22:20;;;;;;;0.52;0.52;;;7.90;99.90;;;;;;5495559;26;20014;-85
2024/04/15 06:24:46;;;;;;;0.45;0.45;;;7.60;99.90;;;;;;5489479;26;20006;-86
2024/04/15 06:27:12;;;;;;;0.50;0.50;;;7.70;99.90;;;;;;5483416;26;20007;-84
2024/04/15 06:29:39;;;;;;;0.50;0.50;;;7.80;99.90;;;;;;5490816;26;20021;-85
2024/04/15 06:32:05;;;;;;;0.57;0.57;;;8.00;99.90;;;;;;5482747;26;20055;-85
2024/04/15 06:34:34;;;;;;;0.75;0.75;;;7.90;99.90;;;;;;5490645;26;20003;-86
2024/04/15 06:37:00;;;;;;;0.50;0.50;;;8.00;99.90;;;;;;5490344;26;20079;-85
2024/04/15 06:39:27;;;;;;;0.43;0.43;;;8.10;99.90;;;;;;5490312;26;19998;-84
2024/04/15 06:41:52;;;;;;;0.52;0.52;;;8.20;99.90;;;;;;5483864;26;20013;-84
2024/04/15 06:44:18;;;;;;;0.40;0.40;;;8.40;99.90;;;;;;5496136;26;20002;-85
2024/04/15 06:46:47;;;;;;;;;;;8.60;99.90;;;;;;5433767;26;20027;-85
2024/04/15 06:51:41;;;;;;;0.40;0.40;;;9.00;99.90;;;;;;6363894;21;20019;-85
2024/04/15 06:54:07;;;;;;;0.50;0.50;;;9.30;99.90;;;;;;5400547;26;20008;-85
2024/04/15 06:56:36;;;;;;;0.75;0.75;;;9.40;99.90;;;;;;5409375;26;20019;-84
2024/04/15 06:59:02;;;;;;;0.60;0.60;;;9.40;99.90;;;;;;5414930;26;20469;-85
2024/04/15 07:01:28;;;;;;;0.55;0.55;;;9.60;99.90;;;;;;5406381;26;20022;-84
2024/04/15 07:03:56;;;;;;;0.47;0.47;;;9.80;99.90;;;;;;5377436;26;20012;-86
2024/04/15 07:06:24;;;;;;;0.50;0.50;;;10.20;99.90;;;;;;5442081;26;20008;-84
2024/04/15 07:08:50;;;;;;;0.85;0.85;;;9.60;99.90;;;;;;5403142;26;20008;-83
2024/04/15 07:11:18;;;;;;;0.73;0.73;;;10.20;99.90;;;;;;5395140;26;20018;-83
2024/04/15 07:13:44;;;;;;;0.80;0.80;;;10.10;99.90;;;;;;5410362;26;20008;-86
2024/04/15 07:16:10;;;;;;;0.40;0.40;;;10.00;99.90;;;;;;5389150;26;20485;-86
2024/04/15 07:18:38;;;;;;;0.88;0.88;;;10.20;99.90;;;;;;5375920;26;20064;-86
2024/04/15 07:21:05;;;;;;;1.35;1.33;;;9.90;99.90;;;;;;5408463;26;20000;-83
2024/04/15 07:23:30;;;;;;;;;;;10.00;99.90;;;;;;5417874;26;20007;-86
2024/04/15 07:25:59;;;;;;;1.23;1.13;;;10.20;99.90;;;;;;5414798;26;19925;-86
2024/04/15 07:28:25;;;;;;;1.67;0.80;;;10.40;99.90;;;;;;5414566;26;20023;-86
2024/04/15 07:31:01;;;;;;;;;;;10.70;99.90;;;;;;5409973;26;20465;-83
2024/04/15 07:33:27;;;;;;;0.88;0.75;;;10.80;99.90;;;;;;5406806;26;19932;-85
2024/04/15 07:35:56;;;;;;;0.45;0.45;;;10.80;99.90;;;;;;5426423;26;20011;-84
2024/04/15 07:38:22;;;;;;;9.05;1.25;;;11.10;99.90;;;;;;5409343;26;19997;-85
2024/04/15 07:40:48;;;;;;;;;;;10.90;99.90;;;;;;5413420;26;20048;-81
2024/04/15 07:43:16;;;;;;;0.30;0.30;;;11.00;99.90;;;;;;5406515;26;19925;-82
2024/04/15 07:45:43;;;;;;;0.40;0.40;;;11.10;99.90;;;;;;5394343;26;20007;-82
2024/04/15 07:48:09;;;;;;;0.75;0.75;;;11.10;99.90;;;;;;5398983;26;20015;-82
2024/04/15 07:50:39;;;;;;;0.45;0.45;;;11.20;99.90;;;;;;5378806;26;20043;-81
2024/04/15 07:53:05;;;;;;;0.50;0.50;;;11.30;99.90;;;;;;5345279;26;20004;-82
2024/04/15 07:55:31;;;;;;;0.40;0.40;;;11.30;99.90;;;;;;5346325;26;20097;-82
2024/04/15 07:57:57;;;;;;;0.73;0.70;;;11.40;99.90;;;;;;5373563;26;20080;-82
2024/04/15 08:00:26;;;;;;;0.88;0.88;;;11.40;99.90;;;;;;5406160;26;20007;-82
2024/04/15 08:02:52;;;;;;;;;;;11.40;99.90;;;;;;5409302;26;20422;-81
2024/04/15 08:05:18;;;;;;;0.82;0.82;;;11.40;99.90;;;;;;5344640;26;19937;-82
2024/04/15 08:07:44;;;;;;;0.47;0.47;;;11.60;99.90;;;;;;5364080;26;20016;-81
2024/04/15 08:10:12;;;;;;;0.30;0.30;;;11.70;99.90;;;;;;5338525;26;20450;-83
2024/04/15 08:12:38;;;;;;;0.40;0.40;;;11.80;99.90;;;;;;5339329;26;20025;-80
2024/04/15 08:15:04;;;;;;;;;;;11.80;99.90;;;;;;5345667;26;20030;-83
2024/04/15 08:17:31;;;;;;;0.50;0.50;;;11.10;99.90;;;;;;5398712;26;20363;-83
2024/04/15 08:19:57;;;;;;;0.43;0.43;;;11.70;99.90;;;;;;5355055;26;20023;-83
2024/04/15 08:22:23;;;;;;;;;;;11.90;99.90;;;;;;5362688;26;20008;-83
2024/04/15 08:24:49;;;;;;;0.40;0.40;;;12.00;99.90;;;;;;5372011;26;19940;-82
2024/04/15 08:27:15;;;;;;;0.93;0.93;;;12.40;99.90;;;;;;5397603;26;20057;-83
2024/04/15 08:29:44;;;;;;;0.30;0.30;;;12.50;99.90;;;;;;5353396;26;20009;-80
2024/04/15 08:32:10;;;;;;;0.32;0.32;;;12.40;99.90;;;;;;5361622;26;20016;-81
2024/04/15 08:34:36;;;;;;;0.82;0.80;;;12.40;99.90;;;;;;5405300;26;20029;-81
2024/04/15 08:37:04;;;;;;;0.60;0.60;;;12.60;99.90;;;;;;5366312;26;20454;-83
2024/04/15 08:39:32;;;;;;;0.40;0.40;;;12.70;99.90;;;;;;5378190;26;20008;-81
2024/04/15 08:42:10;;;;;;;1.15;1.05;;;12.80;99.90;;;;;;5405098;26;20431;-82
2024/04/15 08:44:40;;;;;;;0.30;0.30;;;12.70;99.90;;;;;;5401136;26;20097;-83
2024/04/15 08:47:12;;;;;;;0.75;0.75;;;13.00;99.90;;;;;;5384278;26;20008;-80
2024/04/15 08:49:39;;;;;;;0.30;0.30;;;12.90;99.90;;;;;;5380865;26;20008;-87
2024/04/15 08:52:06;;;;;;;0.30;0.30;;;12.90;99.90;;;;;;5349691;26;20026;-88
2024/04/15 08:54:32;;;;;;;0.30;0.30;;;12.70;99.90;;;;;;5416962;26;20023;-87
2024/04/15 08:57:02;;;;;;;0.30;0.30;;;12.60;99.90;;;;;;5403760;26;20370;-89
2024/04/15 08:59:30;;;;;;;1.88;0.57;;;12.50;99.90;;;;;;5414864;26;20008;-88
2024/04/15 09:01:56;;;;;;;0.40;0.40;;;12.40;99.90;;;;;;5439760;26;20010;-88
2024/04/15 09:04:23;;;;;;;0.40;0.40;;;12.30;99.90;;;;;;5416335;26;20007;-88
2024/04/15 09:06:48;;;;;;;0.32;0.32;;;12.30;99.90;;;;;;5413482;26;20011;-88
2024/04/15 09:09:14;;;;;;;0.95;0.93;;;12.20;99.90;;;;;;5405149;26;20049;-89
2024/04/15 09:11:40;;;;;;;0.55;0.55;;;12.20;99.90;;;;;;5413945;26;20041;-87
2024/04/15 09:14:06;;;;;;;0.30;0.30;;;12.30;99.90;;;;;;5345701;26;20011;-88
2024/04/15 09:16:32;;;;;;;0.47;0.47;;;12.30;99.90;;;;;;5394304;26;20016;-88
2024/04/15 09:18:58;;;;;;;0.30;0.30;;;12.60;99.90;;;;;;5443505;26;20008;-88
2024/04/15 09:21:24;;;;;;;0.43;0.43;;;12.50;99.90;;;;;;5413116;26;20037;-89
2024/04/15 09:23:50;;;;;;;;;;;12.70;99.90;;;;;;5419112;26;20007;-87
2024/04/15 09:26:17;;;;;;;0.30;0.30;;;12.80;99.90;;;;;;5411357;26;20337;-88
2024/04/15 09:28:43;;;;;;;0.40;0.40;;;12.90;99.90;;;;;;5416844;26;20020;-87
2024/04/15 09:31:09;;;;;;;0.30;0.30;;;13.00;99.90;;;;;;5441457;26;20027;-87
2024/04/15 09:33:35;;;;;;;0.80;0.80;;;13.00;99.90;;;;;;5399313;26;20061;-85
2024/04/15 09:36:01;;;;;;;0.40;0.40;;;13.00;99.90;;;;;;5381300;26;20050;-88
2024/04/15 09:38:29;;;;;;;0.30;0.30;;;13.00;99.90;;;;;;5398693;26;20013;-86
2024/04/15 09:40:55;;;;;;;0.30;0.30;;;12.80;99.90;;;;;;5408839;26;20015;-87
2024/04/15 09:43:23;;;;;;;;;;;12.80;99.90;;;;;;5409059;26;20008;-88
2024/04/15 09:45:52;;;;;;;0.40;0.40;;;12.90;99.90;;;;;;5412767;26;19925;-86
2024/04/15 09:48:22;;;;;;;0.30;0.30;;;12.80;99.90;;;;;;5412811;26;20452;-89
2024/04/15 09:50:52;;;;;;;0.40;0.40;;;12.80;99.90;;;;;;5408968;26;20019;-87
2024/04/15 09:53:38;;;;;;;0.57;0.40;;;12.80;99.90;;;;;;5416785;26;20018;-89
2024/04/15 09:56:11;;;;;;;0.20;0.20;;;12.90;99.90;;;;;;5404741;26;20339;-89
2024/04/15 09:58:42;;;;;;;0.30;0.30;;;13.00;99.90;;;;;;5414594;26;20016;-86
2024/04/15 10:01:09;;;;;;;0.60;0.60;;;13.10;99.90;;;;;;5437295;26;20015;-89
2024/04/15 10:03:40;;;;;;;0.65;0.65;;;13.20;99.90;;;;;;5412509;26;20000;-88
2024/04/15 10:06:10;;;;;;;0.40;0.40;;;13.30;99.90;;;;;;5410723;26;20008;-88
2024/04/15 10:08:36;;;;;;;0.30;0.30;;;13.40;99.90;;;;;;5419818;26;20053;-86
2024/04/15 10:11:03;;;;;;;0.17;0.17;;;13.60;99.90;;;;;;5416646;26;20012;-90
2024/04/15 10:13:29;;;;;;;0.30;0.30;;;13.70;99.90;;;;;;5418688;26;20065;-87
2024/04/15 10:15:59;;;;;;;0.50;0.50;;;13.60;99.90;;;;;;5415947;26;20361;-85
2024/04/15 10:18:28;;;;;;;0.20;0.20;;;13.50;99.90;;;;;;5412505;26;20011;-85
2024/04/15 10:20:55;;;;;;;0.30;0.30;;;13.40;99.90;;;;;;5408027;26;20013;-87
2024/04/15 10:23:24;;;;;;;0.40;0.40;;;13.30;99.90;;;;;;5416248;26;20008;-84
2024/04/15 10:25:50;;;;;;;0.40;0.40;;;13.10;99.90;;;;;;5415221;26;20016;-86
2024/04/15 10:28:17;;;;;;;0.17;0.17;;;12.90;99.90;;;;;;5405027;26;20008;-87
2024/04/15 10:30:46;;;;;;;0.47;0.47;;;12.80;99.90;;;;;;5408933;26;20023;-88
2024/04/15 10:33:15;;;;;;;0.28;0.28;;;12.50;99.90;;;;;;5412448;26;20022;-86
2024/04/15 10:35:43;;;;;;;0.30;0.30;;;12.80;99.90;;;;;;5411331;26;20493;-87
2024/04/15 10:38:11;;;;;;;0.20;0.20;;;12.20;99.90;;;;;;5384061;26;20052;-88
2024/04/15 10:40:42;;;;;;;0.30;0.30;;;12.00;99.90;;;;;;5409326;26;20004;-88
2024/04/15 10:43:21;;;;;;;0.30;0.30;;;11.90;99.90;;;;;;5411228;26;20016;-88
2024/04/15 10:45:48;;;;;;;0.57;0.57;;;11.90;99.90;;;;;;5402827;26;20008;-86
2024/04/15 10:48:14;;;;;;;0.70;0.70;;;11.80;99.90;;;;;;5381113;26;20009;-87
2024/04/15 10:50:42;;;;;;;0.40;0.40;;;11.70;99.90;;;;;;5413802;26;20450;-88
2024/04/15 10:53:08;;;;;;;0.20;0.20;;;11.60;99.90;;;;;;5413136;26;20513;-88
2024/04/15 10:55:34;;;;;;;;;;;11.70;99.90;;;;;;5405951;26;20008;-87
2024/04/15 10:58:00;;;;;;;0.40;0.40;;;11.80;99.90;;;;;;5408245;26;19932;-86
2024/04/15 11:00:26;;;;;;;;;;;11.90;99.90;;;;;;5413393;26;20038;-87
2024/04/15 11:02:55;;;;;;;0.30;0.30;;;12.10;99.90;;;;;;5408261;26;19944;-84
2024/04/15 11:05:23;;;;;;;0.38;0.38;;;12.20;99.90;;;;;;5410017;26;20468;-86
2024/04/15 11:07:55;;;;;;;0.43;0.43;;;12.40;99.90;;;;;;5442014;26;20022;-87
2024/04/15 11:10:21;;;;;;;0.30;0.30;;;12.70;99.90;;;;;;5409157;26;20017;-86
2024/04/15 11:12:52;;;;;;;0.38;0.38;;;12.90;99.90;;;;;;5407404;26;20487;-87
2024/04/15 11:15:18;;;;;;;0.40;0.40;;;13.10;99.90;;;;;;5408577;26;20043;-85
2024/04/15 11:17:54;;;;;;;0.30;0.30;;;13.20;99.90;;;;;;5408888;26;20016;-85
2024/04/15 11:20:22;;;;;;;0.73;0.73;;;13.10;99.90;;;;;;5417003;26;20008;-86
2024/04/15 11:22:48;;;;;;;0.20;0.20;;;13.10;99.90;;;;;;5412408;26;20244;-88
2024/04/15 11:25:14;;;;;;;;;;;12.80;99.90;;;;;;5404318;26;20018;-83
2024/04/15 11:27:47;;;;;;;0.47;0.47;;;12.40;99.90;;;;;;5411883;26;19925;-86
2024/04/15 11:30:20;;;;;;;0.50;0.50;;;12.10;99.90;;;;;;5404397;26;20757;-88
2024/04/15 11:32:47;;;;;;;1.52;1.08;;;11.90;99.90;;;;;;5407630;26;20008;-86
2024/04/15 11:35:13;;;;;;;0.40;0.40;;;11.70;99.90;;;;;;5368814;26;20025;-86
2024/04/15 11:37:39;;;;;;;0.40;0.40;;;11.50;99.90;;;;;;5415396;26;20004;-87
2024/04/15 11:40:10;;;;;;;0.40;0.40;;;11.30;99.90;;;;;;5408266;26;20007;-86
2024/04/15 11:42:41;;;;;;;0.35;0.35;;;11.10;99.90;;;;;;5414294;26;20000;-86
2024/04/15 11:45:11;;;;;;;0.30;0.30;;;10.80;99.90;;;;;;5408876;26;20023;-86
2024/04/15 11:47:37;;;;;;;0.40;0.40;;;10.50;99.90;;;;;;5413136;26;20342;-88
2024/04/15 11:50:05;;;;;;;0.80;0.80;;;10.30;99.90;;;;;;5420762;26;20077;-87
2024/04/15 11:52:31;;;;;;;0.40;0.40;;;10.10;99.90;;;;;;5418004;26;20008;-87
2024/04/15 11:54:57;;;;;;;;;;;9.90;99.90;;;;;;5419568;26;20008;-90
2024/04/15 11:57:23;;;;;;;0.30;0.30;;;9.80;99.90;;;;;;5412015;26;19932;-89
2024/04/15 11:59:48;;;;;;;0.40;0.40;;;9.60;99.90;;;;;;5415316;26;20008;-86
2024/04/15 12:02:14;;;;;;;0.40;0.40;;;9.60;99.90;;;;;;5407789;26;20021;-87
2024/04/15 12:04:47;;;;;;;0.40;0.40;;;9.50;99.90;;;;;;5408450;26;20389;-88
2024/04/15 12:07:12;;;;;;;0.50;0.50;;;9.50;99.90;;;;;;5412091;26;20470;-87
2024/04/15 12:09:41;;;;;;;0.30;0.30;;;9.60;99.90;;;;;;5412290;26;20019;-89
2024/04/15 12:12:06;;;;;;;0.90;0.82;;;9.60;99.90;;;;;;5410544;26;20022;-85
2024/04/15 12:14:32;;;;;;;0.35;0.35;;;9.60;99.90;;;;;;5407138;26;20035;-87
2024/04/15 12:16:58;;;;;;;0.40;0.40;;;9.60;99.90;;;;;;5407124;26;20346;-87
2024/04/15 12:19:24;;;;;;;;;;;9.60;99.90;;;;;;5400797;26;20338;-86
2024/04/15 12:21:50;;;;;;;0.35;0.35;;;9.60;99.90;;;;;;5403164;26;19933;-87
2024/04/15 12:24:16;;;;;;;0.80;0.60;;;9.70;99.90;;;;;;5386411;26;20024;-89
2024/04/15 12:26:42;;;;;;;;;;;9.60;99.90;;;;;;5409269;26;20055;-86
2024/04/15 12:29:08;;;;;;;0.40;0.40;;;9.70;99.90;;;;;;5416266;26;19993;-85
2024/04/15 12:31:34;;;;;;;;;;;9.60;99.90;;;;;;5408836;26;20007;-87
2024/04/15 12:33:59;;;;;;;0.75;0.75;;;9.60;99.90;;;;;;5409216;26;19925;-89
2024/04/15 12:36:26;;;;;;;0.50;0.50;;;9.50;99.90;;;;;;5415741;26;20004;-88
2024/04/15 12:38:53;;;;;;;0.52;0.50;;;9.40;99.90;;;;;;5413362;26;20017;-87
2024/04/15 12:41:20;;;;;;;0.93;0.93;;;9.30;99.90;;;;;;5410020;26;20016;-88
2024/04/15 12:43:56;;;;;;;0.45;0.45;;;9.30;99.90;;;;;;5378123;26;20009;-86
2024/04/15 12:46:25;;;;;;;3.55;1.30;;;9.20;99.90;;;;;;5358240;26;20000;-89
2024/04/15 12:48:53;;;;;;;0.40;0.40;;;9.30;99.90;;;;;;5380968;26;20008;-87
2024/04/15 12:51:25;;;;;;;3.72;0.60;;;9.30;99.90;;;;;;5370489;26;20008;-86
2024/04/15 12:54:00;;;;;;;0.43;0.43;;;9.40;99.90;;;;;;5380983;26;20016;-87
2024/04/15 12:56:26;;;;;;;0.43;0.43;;;9.40;99.90;;;;;;5442490;26;20022;-89
2024/04/15 12:58:52;;;;;;;0.35;0.35;;;9.40;99.90;;;;;;5379491;26;20011;-88
2024/04/15 13:01:20;;;;;;;0.55;0.55;;;9.50;99.90;;;;;;5384203;26;20007;-87
2024/04/15 13:03:46;;;;;;;0.45;0.45;;;9.60;99.90;;;;;;5351295;26;20008;-84